createdAt,value
2022-12-08T00:01:42.655Z,19.17
2022-12-08T00:04:11.532Z,23.30
2022-12-08T00:06:59.286Z,21.23
2022-12-08T00:09:36.366Z,23.83
2022-12-08T00:12:08.468Z,24.47
2022-12-08T00:14:40.274Z,22.53
2022-12-08T00:17:10.462Z,24.13
2022-12-08T00:19:40.106Z,23.52
2022-12-08T00:22:09.363Z,19.00
2022-12-08T00:24:39.992Z,25.03
2022-12-08T00:27:09.220Z,23.23
2022-12-08T00:29:39.005Z,21.10
2022-12-08T00:32:07.721Z,18.73
2022-12-08T00:34:35.881Z,24.80
2022-12-08T00:37:04.024Z,27.37
2022-12-08T00:39:34.137Z,22.13
2022-12-08T00:42:14.194Z,26.83
2022-12-08T00:44:45.130Z,27.87
2022-12-08T00:47:14.716Z,19.15
2022-12-08T00:49:43.105Z,24.00
2022-12-08T00:52:12.661Z,31.30
2022-12-08T00:54:40.662Z,22.53
2022-12-08T00:57:08.637Z,18.23
2022-12-08T00:59:36.706Z,23.70
2022-12-08T01:02:06.099Z,22.97
2022-12-08T01:04:34.167Z,26.23
2022-12-08T01:07:02.259Z,25.47
2022-12-08T01:09:30.338Z,23.83
2022-12-08T01:11:58.358Z,26.97
2022-12-08T01:14:26.482Z,23.10
2022-12-08T01:16:54.583Z,22.90
2022-12-08T01:19:24.338Z,20.63
2022-12-08T01:21:52.519Z,25.57
2022-12-08T01:24:22.327Z,24.47
2022-12-08T01:26:51.703Z,23.63
2022-12-08T01:29:19.819Z,22.60
2022-12-08T01:31:47.885Z,23.93
2022-12-08T01:34:16.158Z,21.73
2022-12-08T01:36:45.820Z,23.03
2022-12-08T01:39:16.751Z,21.63
2022-12-08T01:41:45.963Z,24.67
2022-12-08T01:44:51.576Z,23.70
2022-12-08T01:47:19.829Z,24.70
2022-12-08T01:49:48.575Z,25.07
2022-12-08T01:52:25.087Z,21.30
2022-12-08T01:54:57.092Z,23.53
2022-12-08T01:57:29.210Z,24.03
2022-12-08T02:00:02.878Z,26.07
2022-12-08T02:02:46.957Z,19.80
2022-12-08T02:05:16.162Z,26.67
2022-12-08T02:07:47.718Z,21.10
2022-12-08T02:10:19.708Z,19.70
2022-12-08T02:12:49.257Z,20.10
2022-12-08T02:15:17.766Z,26.63
2022-12-08T02:18:57.695Z,20.17
2022-12-08T02:22:03.770Z,24.53
2022-12-08T02:24:39.057Z,23.57
2022-12-08T02:27:29.198Z,25.17
2022-12-08T02:30:26.151Z,23.07
2022-12-08T02:33:22.532Z,24.87
2022-12-08T02:36:00.960Z,23.63
2022-12-08T02:38:38.309Z,22.83
2022-12-08T02:41:20.717Z,25.20
2022-12-08T02:43:54.318Z,21.47
2022-12-08T02:46:28.223Z,21.90
2022-12-08T02:48:57.750Z,24.97
2022-12-08T02:51:27.333Z,21.40
2022-12-08T02:53:56.375Z,20.10
2022-12-08T02:56:40.190Z,25.37
2022-12-08T02:59:39.387Z,21.03
2022-12-08T03:02:23.073Z,23.87
2022-12-08T03:05:01.266Z,21.07
2022-12-08T03:07:34.451Z,20.93
2022-12-08T03:10:08.424Z,26.00
2022-12-08T03:12:43.267Z,24.30
2022-12-08T03:15:36.978Z,25.63
2022-12-08T03:18:06.775Z,29.33
2022-12-08T03:20:36.261Z,21.40
2022-12-08T03:23:09.556Z,23.53
2022-12-08T03:25:42.250Z,21.20
2022-12-08T03:28:10.800Z,24.73
2022-12-08T03:30:42.524Z,20.17
2022-12-08T03:33:16.663Z,21.60
2022-12-08T03:35:46.299Z,20.40
2022-12-08T03:38:17.511Z,21.57
2022-12-08T03:44:23.435Z,24.27
2022-12-08T03:46:51.562Z,21.83
2022-12-08T03:49:19.641Z,22.47
2022-12-08T03:51:47.701Z,28.70
2022-12-08T03:54:17.119Z,24.23
2022-12-08T03:56:46.277Z,22.17
2022-12-08T03:59:14.513Z,30.03
2022-12-08T04:01:42.607Z,21.63
2022-12-08T04:04:10.836Z,19.83
2022-12-08T04:06:38.842Z,25.30
2022-12-08T04:09:06.878Z,19.43
2022-12-08T04:11:36.448Z,27.23
2022-12-08T04:14:04.555Z,22.67
2022-12-08T04:16:32.702Z,23.50
2022-12-08T04:19:00.925Z,20.80
2022-12-08T04:21:28.971Z,21.53
2022-12-08T04:24:01.048Z,25.50
2022-12-08T04:26:29.875Z,24.60
2022-12-08T04:28:59.275Z,23.87
2022-12-08T04:31:27.472Z,24.50
2022-12-08T04:33:55.504Z,23.73
2022-12-08T04:36:23.622Z,20.50
2022-12-08T04:38:51.649Z,26.90
2022-12-08T04:41:19.675Z,25.30
2022-12-08T04:43:47.735Z,25.17
2022-12-08T04:46:17.303Z,21.70
2022-12-08T04:48:45.363Z,29.77
2022-12-08T04:51:16.542Z,25.07
2022-12-08T04:56:15.905Z,19.33
2022-12-08T04:58:44.058Z,24.17
2022-12-08T05:01:12.823Z,28.67
2022-12-08T05:03:42.362Z,24.43
2022-12-08T05:06:12.063Z,29.17
2022-12-08T05:08:40.167Z,23.00
2022-12-08T05:11:11.015Z,27.40
2022-12-08T05:13:39.209Z,19.60
2022-12-08T05:16:09.122Z,32.83
2022-12-08T05:18:37.565Z,25.97
2022-12-08T05:21:08.054Z,23.53
2022-12-08T05:23:36.307Z,27.48
2022-12-08T05:26:04.561Z,26.30
2022-12-08T05:28:41.421Z,21.37
2022-12-08T05:31:10.432Z,24.47
2022-12-08T05:33:38.456Z,27.13
2022-12-08T05:36:08.798Z,28.10
2022-12-08T05:38:37.046Z,25.92
2022-12-08T05:41:05.233Z,26.07
2022-12-08T05:43:33.352Z,26.27
2022-12-08T05:46:01.453Z,27.60
2022-12-08T05:48:30.000Z,30.63
2022-12-08T05:50:58.101Z,30.17
2022-12-08T05:53:27.482Z,28.97
2022-12-08T05:55:55.615Z,21.43
2022-12-08T05:58:24.638Z,26.30
2022-12-08T06:00:52.663Z,28.10
2022-12-08T06:03:20.882Z,24.50
2022-12-08T06:05:49.226Z,26.23
2022-12-08T06:08:17.543Z,25.60
2022-12-08T06:10:47.363Z,27.53
2022-12-08T06:13:16.177Z,20.83
2022-12-08T06:15:44.262Z,27.37
2022-12-08T06:18:12.796Z,25.20
2022-12-08T06:20:40.825Z,23.03
2022-12-08T06:23:09.093Z,28.17
2022-12-08T06:25:37.122Z,27.10
2022-12-08T06:28:08.529Z,26.20
2022-12-08T06:30:36.658Z,30.20
2022-12-08T06:33:04.743Z,26.20
2022-12-08T06:35:32.950Z,27.40
2022-12-08T06:38:00.927Z,23.97
2022-12-08T06:40:29.038Z,23.93
2022-12-08T06:42:57.099Z,27.17
2022-12-08T06:45:26.479Z,27.37
2022-12-08T06:47:54.578Z,28.10
2022-12-08T06:50:22.729Z,30.40
2022-12-08T06:53:02.683Z,24.63
2022-12-08T06:58:21.649Z,24.73
2022-12-08T07:00:51.220Z,25.70
2022-12-08T07:03:19.380Z,28.37
2022-12-08T07:05:47.763Z,27.93
2022-12-08T07:08:16.049Z,30.03
2022-12-08T07:10:44.188Z,28.47
2022-12-08T07:13:12.283Z,18.77
2022-12-08T07:15:40.665Z,30.73
2022-12-08T07:18:10.032Z,27.50
2022-12-08T07:20:38.683Z,24.63
2022-12-08T07:23:06.726Z,34.70
2022-12-08T07:25:35.062Z,28.67
2022-12-08T07:28:08.310Z,24.03
2022-12-08T07:30:36.442Z,28.10
2022-12-08T07:33:31.227Z,25.37
2022-12-08T07:36:04.364Z,31.03
2022-12-08T07:38:32.624Z,24.77
2022-12-08T07:41:00.668Z,24.33
2022-12-08T07:43:29.017Z,25.90
2022-12-08T07:45:57.088Z,27.00
2022-12-08T07:48:25.158Z,22.27
2022-12-08T07:51:43.259Z,32.07
2022-12-08T07:54:38.877Z,26.10
2022-12-08T07:57:09.112Z,24.07
2022-12-08T07:59:37.452Z,30.25
2022-12-08T08:02:23.462Z,27.20
2022-12-08T08:04:54.475Z,24.83
2022-12-08T08:07:22.649Z,27.40
2022-12-08T08:09:52.085Z,25.70
2022-12-08T08:12:31.172Z,32.00
2022-12-08T08:15:00.309Z,28.20
2022-12-08T08:17:28.639Z,31.63
2022-12-08T08:19:57.345Z,27.87
2022-12-08T08:22:26.337Z,29.67
2022-12-08T08:24:56.109Z,32.33
2022-12-08T08:27:28.013Z,22.83
2022-12-08T08:29:56.139Z,27.87
2022-12-08T08:32:24.116Z,27.90
2022-12-08T08:34:52.273Z,24.63
2022-12-08T08:37:23.160Z,35.45
2022-12-08T08:39:54.058Z,29.83
2022-12-08T08:42:24.039Z,28.20
2022-12-08T08:44:54.075Z,27.93
2022-12-08T08:47:22.047Z,29.57
2022-12-08T08:49:50.274Z,30.50
2022-12-08T08:52:18.453Z,29.13
2022-12-08T08:54:46.441Z,34.83
2022-12-08T08:57:14.432Z,26.17
2022-12-08T08:59:43.893Z,29.87
2022-12-08T09:02:17.427Z,29.53
2022-12-08T09:04:46.406Z,29.60
2022-12-08T09:07:16.046Z,26.97
2022-12-08T09:09:44.471Z,31.57
2022-12-08T09:12:13.622Z,24.40
2022-12-08T09:14:43.098Z,34.87
2022-12-08T09:17:13.199Z,29.53
2022-12-08T09:19:41.428Z,34.23
2022-12-08T09:22:11.025Z,27.90
2022-12-08T09:24:39.116Z,27.37
2022-12-08T09:27:07.169Z,32.50
2022-12-08T09:29:36.382Z,27.07
2022-12-08T09:32:06.664Z,28.50
2022-12-08T09:34:36.179Z,27.67
2022-12-08T09:37:04.520Z,27.23
2022-12-08T09:39:32.584Z,31.90
2022-12-08T09:42:03.694Z,28.27
2022-12-08T09:47:22.384Z,36.80
2022-12-08T09:49:58.018Z,27.53
2022-12-08T09:52:31.312Z,33.40
2022-12-08T09:55:02.392Z,30.10
2022-12-08T10:00:06.076Z,27.73
2022-12-08T10:02:36.529Z,36.57
2022-12-08T10:05:04.775Z,30.13
2022-12-08T10:07:40.184Z,30.00
2022-12-08T10:10:23.770Z,29.27
2022-12-08T10:12:56.278Z,29.23
2022-12-08T10:15:38.148Z,30.27
2022-12-08T10:18:15.191Z,31.70
2022-12-08T10:20:45.638Z,27.27
2022-12-08T10:23:23.910Z,31.65
2022-12-08T10:25:57.127Z,28.93
2022-12-08T10:28:25.270Z,30.87
2022-12-08T10:30:53.323Z,27.90
2022-12-08T10:33:23.864Z,29.53
2022-12-08T10:35:54.253Z,29.40
2022-12-08T10:38:24.715Z,25.63
2022-12-08T10:40:55.692Z,29.48
2022-12-08T10:43:25.872Z,33.65
2022-12-08T10:45:54.348Z,31.73
2022-12-08T10:48:27.368Z,34.07
2022-12-08T10:50:58.053Z,35.47
2022-12-08T10:53:27.918Z,29.95
2022-12-08T10:56:08.559Z,30.83
2022-12-08T10:58:40.749Z,25.88
2022-12-08T11:01:14.336Z,29.60
2022-12-08T11:03:48.872Z,31.27
2022-12-08T11:06:20.075Z,30.00
2022-12-08T11:08:51.576Z,31.70
2022-12-08T11:11:25.835Z,30.90
2022-12-08T11:13:55.774Z,30.80
2022-12-08T11:16:25.142Z,30.53
2022-12-08T11:18:59.369Z,26.33
2022-12-08T11:21:37.237Z,28.80
2022-12-08T11:24:22.636Z,29.60
2022-12-08T11:26:55.272Z,25.40
2022-12-08T11:29:23.481Z,27.90
2022-12-08T11:31:58.651Z,24.67
2022-12-08T11:34:35.415Z,28.13
2022-12-08T11:37:06.253Z,32.43
2022-12-08T11:39:37.523Z,34.50
2022-12-08T11:42:12.697Z,25.67
2022-12-08T11:44:48.811Z,30.20
2022-12-08T11:47:21.759Z,28.17
2022-12-08T11:49:56.844Z,29.47
2022-12-08T11:52:30.808Z,29.63
2022-12-08T11:55:23.633Z,28.00
2022-12-08T11:57:52.753Z,25.93
2022-12-08T12:00:21.301Z,29.20
2022-12-08T12:02:56.193Z,24.47
2022-12-08T12:06:08.823Z,26.40
2022-12-08T12:08:41.948Z,26.23
2022-12-08T12:11:41.070Z,26.10
2022-12-08T12:14:26.230Z,24.80
2022-12-08T12:17:03.302Z,33.90
2022-12-08T12:19:37.015Z,25.83
2022-12-08T12:22:15.381Z,24.43
2022-12-08T12:24:47.463Z,23.43
2022-12-08T12:27:28.138Z,22.30
2022-12-08T12:30:00.081Z,24.98
2022-12-08T12:32:42.587Z,21.33
2022-12-08T12:35:17.977Z,15.23
2022-12-08T12:37:50.017Z,10.43
2022-12-08T12:40:21.432Z,9.13
2022-12-08T12:43:25.573Z,12.70
2022-12-08T12:46:32.447Z,11.20
2022-12-08T12:49:34.152Z,8.50
2022-12-08T12:52:02.258Z,10.80
2022-12-08T12:54:32.191Z,11.77
2022-12-08T12:57:22.414Z,13.27
2022-12-08T13:00:09.464Z,11.97
2022-12-08T13:02:40.842Z,13.50
2022-12-08T13:05:12.005Z,16.00
2022-12-08T13:10:20.072Z,8.37
2022-12-08T13:13:04.378Z,9.17
2022-12-08T13:15:36.909Z,10.87
2022-12-08T13:18:05.853Z,12.60
2022-12-08T13:20:42.485Z,14.83
2022-12-08T13:23:27.207Z,9.53
2022-12-08T13:26:17.135Z,10.17
2022-12-08T13:29:16.611Z,11.90
2022-12-08T13:31:50.969Z,14.70
2022-12-08T13:34:32.789Z,12.80
2022-12-08T13:39:38.040Z,12.55
2022-12-08T13:42:20.249Z,11.77
2022-12-08T13:48:13.716Z,12.03
2022-12-08T13:51:15.941Z,11.63
2022-12-08T13:54:35.424Z,10.13
2022-12-08T13:59:28.195Z,10.88
2022-12-08T14:01:58.439Z,8.77
2022-12-08T14:04:54.400Z,7.63
2022-12-08T14:07:15.931Z,12.03
2022-12-08T14:09:44.501Z,10.90
2022-12-08T14:12:20.562Z,12.83
2022-12-08T14:15:07.526Z,10.73
2022-12-08T14:17:35.909Z,10.53
2022-12-08T14:20:07.543Z,9.43
2022-12-08T14:22:37.685Z,7.27
2022-12-08T14:25:07.769Z,9.90
2022-12-08T14:27:37.976Z,8.05
2022-12-08T14:30:16.600Z,7.77
2022-12-08T14:32:49.098Z,6.77
2022-12-08T14:35:23.467Z,9.33
2022-12-08T14:37:55.739Z,6.00
2022-12-08T14:40:26.350Z,11.77
2022-12-08T14:43:06.215Z,7.20
2022-12-08T14:45:35.911Z,10.33
2022-12-08T14:48:21.980Z,10.57
2022-12-08T14:51:05.132Z,10.23
2022-12-08T14:53:39.680Z,12.47
2022-12-08T14:56:18.703Z,9.10
2022-12-08T14:58:47.816Z,8.13
2022-12-08T15:01:22.493Z,6.83
2022-12-08T15:03:51.801Z,6.43
2022-12-08T15:06:23.230Z,7.27
2022-12-08T15:09:01.924Z,9.23
2022-12-08T15:11:35.959Z,6.13
2022-12-08T15:14:04.515Z,14.90
2022-12-08T15:16:41.707Z,8.40
2022-12-08T15:19:23.291Z,7.63
2022-12-08T15:21:52.174Z,7.63
2022-12-08T15:24:23.003Z,13.93
2022-12-08T15:26:52.432Z,8.00
2022-12-08T15:29:22.634Z,10.30
2022-12-08T15:31:54.903Z,9.60
2022-12-08T15:34:23.057Z,9.17
2022-12-08T15:36:53.100Z,15.70
2022-12-08T15:39:30.231Z,12.40
2022-12-08T15:41:58.353Z,8.40
2022-12-08T15:44:26.580Z,9.87
2022-12-08T15:46:56.627Z,11.40
2022-12-08T15:49:25.486Z,10.20
2022-12-08T15:52:01.954Z,10.03
2022-12-08T15:54:32.994Z,8.60
2022-12-08T16:04:09.025Z,9.43
2022-12-08T16:07:12.821Z,7.10
2022-12-08T16:09:13.295Z,7.67
2022-12-08T16:12:08.287Z,8.17
2022-12-08T16:17:27.139Z,8.97
2022-12-08T16:19:56.752Z,8.43
2022-12-08T16:22:52.819Z,13.63
2022-12-08T16:25:20.418Z,7.37
2022-12-08T16:28:29.570Z,10.67
2022-12-08T16:30:38.805Z,9.87
2022-12-08T16:33:07.447Z,6.67
2022-12-08T16:35:36.926Z,9.60
2022-12-08T16:38:05.277Z,11.13
2022-12-08T16:40:53.692Z,10.80
2022-12-08T16:43:20.964Z,11.70
2022-12-08T16:45:52.144Z,7.17
2022-12-08T16:50:50.215Z,11.97
2022-12-08T16:53:18.324Z,11.77
2022-12-08T16:55:47.983Z,13.43
2022-12-08T16:58:18.362Z,12.33
2022-12-08T17:00:46.652Z,16.58
2022-12-08T17:03:16.751Z,11.57
2022-12-08T17:05:45.304Z,16.42
2022-12-08T17:08:14.873Z,16.37
2022-12-08T17:10:42.959Z,17.87
2022-12-08T17:13:13.007Z,12.50
2022-12-08T17:15:41.342Z,17.70
2022-12-08T17:18:09.299Z,10.50
2022-12-08T17:20:37.351Z,11.37
2022-12-08T17:23:05.388Z,15.67
2022-12-08T17:25:34.775Z,16.30
2022-12-08T17:28:02.792Z,12.80
2022-12-08T17:30:30.867Z,15.00
2022-12-08T17:33:00.835Z,18.17
2022-12-08T17:35:28.889Z,19.00
2022-12-08T17:37:56.994Z,12.23
2022-12-08T17:40:28.153Z,17.60
2022-12-08T17:42:57.836Z,18.87
2022-12-08T17:45:25.867Z,18.27
2022-12-08T17:47:53.924Z,15.40
2022-12-08T17:50:22.094Z,11.60
2022-12-08T17:52:51.510Z,16.07
2022-12-08T17:55:19.570Z,23.07
2022-12-08T17:57:47.598Z,18.63
2022-12-08T18:00:17.453Z,17.40
2022-12-08T18:02:45.952Z,21.00
2022-12-08T18:05:14.104Z,22.83
2022-12-08T18:07:42.499Z,24.50
2022-12-08T18:10:10.603Z,22.20
2022-12-08T18:12:39.639Z,29.73
2022-12-08T18:15:12.659Z,12.10
2022-12-08T18:17:42.027Z,19.00
2022-12-08T18:20:10.985Z,20.37
2022-12-08T18:22:39.064Z,21.30
2022-12-08T18:25:08.177Z,18.97
2022-12-08T18:27:41.442Z,18.63
2022-12-08T18:30:15.393Z,26.73
2022-12-08T18:32:45.036Z,22.03
2022-12-08T18:35:13.434Z,20.70
2022-12-08T18:37:42.994Z,20.10
2022-12-08T18:40:12.584Z,18.57
2022-12-08T18:42:40.605Z,22.17
2022-12-08T18:45:09.395Z,23.57
2022-12-08T18:47:39.512Z,18.03
2022-12-08T18:50:11.048Z,22.73
2022-12-08T18:52:39.133Z,24.93
2022-12-08T18:55:08.476Z,26.23
2022-12-08T18:57:39.385Z,23.43
2022-12-08T19:00:11.457Z,22.85
2022-12-08T19:02:40.051Z,22.77
2022-12-08T19:05:11.629Z,24.87
2022-12-08T19:07:39.944Z,30.60
2022-12-08T19:10:09.402Z,31.77
2022-12-08T19:12:37.635Z,34.50
2022-12-08T19:15:06.526Z,35.93
2022-12-08T19:17:34.787Z,26.33
2022-12-08T19:20:03.599Z,26.23
2022-12-08T19:22:33.113Z,33.87
2022-12-08T19:25:01.138Z,29.83
2022-12-08T19:27:29.247Z,30.67
2022-12-08T19:29:58.818Z,30.93
2022-12-08T19:32:27.163Z,29.87
2022-12-08T19:34:55.219Z,30.83
2022-12-08T19:37:23.413Z,32.70
2022-12-08T19:40:06.854Z,29.07
2022-12-08T19:42:52.679Z,39.63
2022-12-08T19:45:22.801Z,40.43
2022-12-08T19:47:51.196Z,36.85
2022-12-08T19:50:38.149Z,35.00
2022-12-08T19:53:07.296Z,39.47
2022-12-08T19:55:36.801Z,63.30
2022-12-08T19:58:06.745Z,39.83
2022-12-08T20:00:36.381Z,58.27
2022-12-08T20:03:05.334Z,54.00
2022-12-08T20:06:00.809Z,36.13
2022-12-08T20:08:28.886Z,39.03
2022-12-08T20:10:59.425Z,30.97
2022-12-08T20:13:45.242Z,32.70
2022-12-08T20:16:14.880Z,33.73
2022-12-08T20:18:44.357Z,22.53
2022-12-08T20:21:13.416Z,20.37
2022-12-08T20:23:41.629Z,20.00
2022-12-08T20:26:15.746Z,31.07
2022-12-08T20:28:44.175Z,34.50
2022-12-08T20:31:19.207Z,42.30
2022-12-08T20:33:48.345Z,28.77
2022-12-08T20:36:19.267Z,34.37
2022-12-08T20:38:49.824Z,50.38
2022-12-08T20:41:19.988Z,55.72
2022-12-08T20:43:51.886Z,45.00
2022-12-08T20:46:21.362Z,35.53
2022-12-08T20:48:49.861Z,43.77
2022-12-08T20:51:19.435Z,51.83
2022-12-08T20:53:48.156Z,36.67
2022-12-08T20:56:17.880Z,38.60
2022-12-08T20:58:48.009Z,33.80
2022-12-08T21:01:22.621Z,38.70
2022-12-08T21:03:51.231Z,46.47
2022-12-08T21:06:22.239Z,44.40
2022-12-08T21:08:52.833Z,34.92
2022-12-08T21:11:21.205Z,35.55
2022-12-08T21:13:50.902Z,32.07
2022-12-08T21:16:44.725Z,39.60
2022-12-08T21:19:13.378Z,38.00
2022-12-08T21:21:41.406Z,36.23
2022-12-08T21:24:10.705Z,37.63
2022-12-08T21:26:39.161Z,25.30
2022-12-08T21:29:08.604Z,23.63
2022-12-08T21:31:36.749Z,30.37
2022-12-08T21:34:05.355Z,33.97
2022-12-08T21:36:33.749Z,34.00
2022-12-08T21:39:02.834Z,38.53
2022-12-08T21:41:48.984Z,33.17
2022-12-08T21:44:19.537Z,36.97
2022-12-08T21:46:48.126Z,41.63
2022-12-08T21:49:17.355Z,45.27
2022-12-08T21:51:45.701Z,40.20
2022-12-08T21:54:18.652Z,44.30
2022-12-08T21:56:48.708Z,43.23
2022-12-08T21:59:19.781Z,41.17
2022-12-08T22:04:18.495Z,39.33
2022-12-08T22:06:47.074Z,40.10
2022-12-08T22:09:15.292Z,37.87
2022-12-08T22:12:45.355Z,40.07
2022-12-08T22:15:15.091Z,34.70
2022-12-08T22:17:45.048Z,37.33
2022-12-08T22:20:15.666Z,44.50
2022-12-08T22:22:44.323Z,47.38
2022-12-08T22:25:13.188Z,40.37
2022-12-08T22:27:42.231Z,42.77
2022-12-08T22:30:12.006Z,41.07
2022-12-08T22:32:42.087Z,38.07
2022-12-08T22:35:11.270Z,38.60
2022-12-08T22:37:39.427Z,42.10
2022-12-08T22:40:09.020Z,31.60
2022-12-08T22:42:37.482Z,37.13
2022-12-08T22:45:06.235Z,35.70
2022-12-08T22:47:34.583Z,33.90
2022-12-08T22:50:05.173Z,33.97
2022-12-08T22:52:33.600Z,40.72
2022-12-08T22:55:01.591Z,36.23
2022-12-08T22:57:30.066Z,35.77
2022-12-08T22:59:58.193Z,36.43
2022-12-08T23:02:26.564Z,31.20
2022-12-08T23:04:57.068Z,33.67
2022-12-08T23:07:26.811Z,37.53
2022-12-08T23:09:55.073Z,36.13
2022-12-08T23:12:23.576Z,37.10
2022-12-08T23:14:51.694Z,38.90
2022-12-08T23:17:20.151Z,36.87
2022-12-08T23:19:51.054Z,45.63
2022-12-08T23:22:19.175Z,37.20
2022-12-08T23:24:48.665Z,37.43
2022-12-08T23:27:16.797Z,38.47
2022-12-08T23:29:44.888Z,34.67
2022-12-08T23:32:13.113Z,34.80
2022-12-08T23:34:41.348Z,35.90
2022-12-08T23:37:09.706Z,32.50
2022-12-08T23:39:37.798Z,32.07
2022-12-08T23:42:07.749Z,32.17
2022-12-08T23:44:35.795Z,35.23
2022-12-08T23:47:04.003Z,38.63
2022-12-08T23:49:32.008Z,31.07
2022-12-08T23:52:00.258Z,38.10
2022-12-08T23:54:28.360Z,34.93
2022-12-08T23:56:56.381Z,36.40
2022-12-08T23:59:25.801Z,35.37
